sensor_id;sensor_type;location;lat;lon;timestamp;P1;durP1;ratioP1;P2;durP2;ratioP2
10442;SDS011;5269;51.146;16.986;2022-10-17T00:01:02;22.60;;;18.15;;
10442;SDS011;5269;51.146;16.986;2022-10-17T00:03:29;23.42;;;18.30;;
10442;SDS011;5269;51.146;16.986;2022-10-17T00:05:56;25.40;;;19.33;;
10442;SDS011;5269;51.146;16.986;2022-10-17T00:08:24;26.55;;;19.10;;
10442;SDS011;5269;51.146;16.986;2022-10-17T00:10:55;24.13;;;18.75;;
10442;SDS011;5269;51.146;16.986;2022-10-17T00:13:23;26.48;;;19.42;;
10442;SDS011;5269;51.146;16.986;2022-10-17T00:15:50;25.25;;;20.05;;
10442;SDS011;5269;51.146;16.986;2022-10-17T00:18:17;26.17;;;20.10;;
10442;SDS011;5269;51.146;16.986;2022-10-17T00:20:44;28.02;;;20.83;;
10442;SDS011;5269;51.146;16.986;2022-10-17T00:23:11;24.75;;;20.92;;
10442;SDS011;5269;51.146;16.986;2022-10-17T00:25:39;27.98;;;20.67;;
10442;SDS011;5269;51.146;16.986;2022-10-17T00:28:07;26.02;;;20.02;;
10442;SDS011;5269;51.146;16.986;2022-10-17T00:30:34;28.75;;;20.90;;
10442;SDS011;5269;51.146;16.986;2022-10-17T00:33:01;28.27;;;21.95;;
10442;SDS011;5269;51.146;16.986;2022-10-17T00:35:28;28.23;;;21.33;;
10442;SDS011;5269;51.146;16.986;2022-10-17T00:37:55;26.08;;;20.63;;
10442;SDS011;5269;51.146;16.986;2022-10-17T00:40:22;27.05;;;19.85;;
10442;SDS011;5269;51.146;16.986;2022-10-17T00:42:51;27.23;;;19.77;;
10442;SDS011;5269;51.146;16.986;2022-10-17T00:45:20;26.27;;;20.38;;
10442;SDS011;5269;51.146;16.986;2022-10-17T00:47:49;27.00;;;19.75;;
10442;SDS011;5269;51.146;16.986;2022-10-17T00:50:20;27.15;;;20.25;;
10442;SDS011;5269;51.146;16.986;2022-10-17T00:52:48;29.08;;;20.17;;
10442;SDS011;5269;51.146;16.986;2022-10-17T00:55:17;25.05;;;20.63;;
10442;SDS011;5269;51.146;16.986;2022-10-17T00:57:48;24.05;;;19.42;;
10442;SDS011;5269;51.146;16.986;2022-10-17T01:00:17;27.70;;;22.00;;
10442;SDS011;5269;51.146;16.986;2022-10-17T01:02:44;28.30;;;21.70;;
10442;SDS011;5269;51.146;16.986;2022-10-17T01:05:12;27.00;;;21.15;;
10442;SDS011;5269;51.146;16.986;2022-10-17T01:07:40;28.30;;;20.60;;
10442;SDS011;5269;51.146;16.986;2022-10-17T01:10:08;26.95;;;21.27;;
10442;SDS011;5269;51.146;16.986;2022-10-17T01:12:40;27.92;;;21.05;;
10442;SDS011;5269;51.146;16.986;2022-10-17T01:15:20;28.20;;;20.80;;
10442;SDS011;5269;51.146;16.986;2022-10-17T01:17:58;27.80;;;20.52;;
10442;SDS011;5269;51.146;16.986;2022-10-17T01:26:25;24.83;;;18.23;;
10442;SDS011;5269;51.146;16.986;2022-10-17T01:29:11;20.23;;;16.90;;
10442;SDS011;5269;51.146;16.986;2022-10-17T01:31:57;21.02;;;17.63;;
10442;SDS011;5269;51.146;16.986;2022-10-17T01:34:28;22.30;;;17.75;;
10442;SDS011;5269;51.146;16.986;2022-10-17T01:37:00;22.27;;;18.50;;
10442;SDS011;5269;51.146;16.986;2022-10-17T01:39:32;18.60;;;15.77;;
10442;SDS011;5269;51.146;16.986;2022-10-17T01:42:06;21.08;;;17.13;;
10442;SDS011;5269;51.146;16.986;2022-10-17T01:44:41;22.40;;;16.85;;
10442;SDS011;5269;51.146;16.986;2022-10-17T01:47:14;25.95;;;18.92;;
10442;SDS011;5269;51.146;16.986;2022-10-17T01:49:44;19.40;;;16.73;;
10442;SDS011;5269;51.146;16.986;2022-10-17T01:52:17;31.95;;;20.98;;
10442;SDS011;5269;51.146;16.986;2022-10-17T01:54:46;27.48;;;20.60;;
10442;SDS011;5269;51.146;16.986;2022-10-17T01:57:16;24.48;;;18.50;;
10442;SDS011;5269;51.146;16.986;2022-10-17T01:59:50;20.15;;;16.85;;
10442;SDS011;5269;51.146;16.986;2022-10-17T02:02:19;22.33;;;16.38;;
10442;SDS011;5269;51.146;16.986;2022-10-17T02:04:48;18.42;;;15.70;;
10442;SDS011;5269;51.146;16.986;2022-10-17T02:07:17;20.55;;;16.58;;
10442;SDS011;5269;51.146;16.986;2022-10-17T02:09:44;22.48;;;18.13;;
10442;SDS011;5269;51.146;16.986;2022-10-17T02:12:15;25.25;;;20.02;;
10442;SDS011;5269;51.146;16.986;2022-10-17T02:14:58;26.55;;;20.85;;
10442;SDS011;5269;51.146;16.986;2022-10-17T02:17:37;27.27;;;21.70;;
10442;SDS011;5269;51.146;16.986;2022-10-17T02:20:13;29.05;;;21.25;;
10442;SDS011;5269;51.146;16.986;2022-10-17T02:22:46;30.42;;;23.27;;
10442;SDS011;5269;51.146;16.986;2022-10-17T02:25:20;27.00;;;21.08;;
10442;SDS011;5269;51.146;16.986;2022-10-17T02:27:52;26.60;;;19.98;;
10442;SDS011;5269;51.146;16.986;2022-10-17T02:30:22;26.17;;;20.90;;
10442;SDS011;5269;51.146;16.986;2022-10-17T02:32:56;36.47;;;25.90;;
10442;SDS011;5269;51.146;16.986;2022-10-17T02:35:33;31.33;;;23.17;;
10442;SDS011;5269;51.146;16.986;2022-10-17T02:38:02;34.08;;;25.08;;
10442;SDS011;5269;51.146;16.986;2022-10-17T02:40:31;33.35;;;25.92;;
10442;SDS011;5269;51.146;16.986;2022-10-17T02:42:59;36.40;;;25.13;;
10442;SDS011;5269;51.146;16.986;2022-10-17T02:45:27;35.08;;;25.25;;
10442;SDS011;5269;51.146;16.986;2022-10-17T02:48:01;34.15;;;25.05;;
10442;SDS011;5269;51.146;16.986;2022-10-17T02:50:32;32.08;;;24.08;;
10442;SDS011;5269;51.146;16.986;2022-10-17T02:53:07;31.83;;;22.75;;
10442;SDS011;5269;51.146;16.986;2022-10-17T02:55:40;34.75;;;22.08;;
10442;SDS011;5269;51.146;16.986;2022-10-17T02:58:12;31.50;;;23.38;;
10442;SDS011;5269;51.146;16.986;2022-10-17T03:00:43;33.70;;;23.63;;
10442;SDS011;5269;51.146;16.986;2022-10-17T03:03:19;32.75;;;23.08;;
10442;SDS011;5269;51.146;16.986;2022-10-17T03:05:47;32.22;;;22.67;;
10442;SDS011;5269;51.146;16.986;2022-10-17T03:08:14;36.13;;;24.58;;
10442;SDS011;5269;51.146;16.986;2022-10-17T03:10:41;31.13;;;23.88;;
10442;SDS011;5269;51.146;16.986;2022-10-17T03:13:08;33.92;;;24.42;;
10442;SDS011;5269;51.146;16.986;2022-10-17T03:15:35;31.40;;;23.23;;
10442;SDS011;5269;51.146;16.986;2022-10-17T03:18:02;31.33;;;22.88;;
10442;SDS011;5269;51.146;16.986;2022-10-17T03:20:30;33.08;;;22.80;;
10442;SDS011;5269;51.146;16.986;2022-10-17T03:22:57;35.65;;;24.23;;
10442;SDS011;5269;51.146;16.986;2022-10-17T03:25:24;36.60;;;24.50;;
10442;SDS011;5269;51.146;16.986;2022-10-17T03:27:51;35.35;;;24.58;;
10442;SDS011;5269;51.146;16.986;2022-10-17T03:30:18;34.85;;;23.38;;
10442;SDS011;5269;51.146;16.986;2022-10-17T03:32:45;31.95;;;23.23;;
10442;SDS011;5269;51.146;16.986;2022-10-17T03:35:12;30.23;;;22.73;;
10442;SDS011;5269;51.146;16.986;2022-10-17T03:37:40;31.65;;;23.02;;
10442;SDS011;5269;51.146;16.986;2022-10-17T03:40:08;33.80;;;24.70;;
10442;SDS011;5269;51.146;16.986;2022-10-17T03:42:35;33.25;;;25.17;;
10442;SDS011;5269;51.146;16.986;2022-10-17T03:45:02;33.50;;;24.42;;
10442;SDS011;5269;51.146;16.986;2022-10-17T03:47:29;33.25;;;23.33;;
10442;SDS011;5269;51.146;16.986;2022-10-17T03:49:56;32.25;;;23.05;;
10442;SDS011;5269;51.146;16.986;2022-10-17T03:52:23;35.25;;;22.77;;
10442;SDS011;5269;51.146;16.986;2022-10-17T03:54:51;33.90;;;25.17;;
10442;SDS011;5269;51.146;16.986;2022-10-17T03:57:18;34.78;;;25.63;;
10442;SDS011;5269;51.146;16.986;2022-10-17T03:59:45;33.88;;;24.65;;
10442;SDS011;5269;51.146;16.986;2022-10-17T04:02:12;32.83;;;23.60;;
10442;SDS011;5269;51.146;16.986;2022-10-17T04:04:39;29.88;;;23.02;;
10442;SDS011;5269;51.146;16.986;2022-10-17T04:07:05;30.35;;;22.83;;
10442;SDS011;5269;51.146;16.986;2022-10-17T04:09:32;34.13;;;23.67;;
10442;SDS011;5269;51.146;16.986;2022-10-17T04:12:00;29.75;;;22.25;;
10442;SDS011;5269;51.146;16.986;2022-10-17T04:14:27;27.60;;;22.15;;
10442;SDS011;5269;51.146;16.986;2022-10-17T04:16:54;31.73;;;22.73;;
10442;SDS011;5269;51.146;16.986;2022-10-17T04:19:21;33.80;;;24.65;;
10442;SDS011;5269;51.146;16.986;2022-10-17T04:21:49;28.50;;;22.08;;
10442;SDS011;5269;51.146;16.986;2022-10-17T04:24:16;30.23;;;22.58;;
10442;SDS011;5269;51.146;16.986;2022-10-17T04:26:43;29.25;;;21.00;;
10442;SDS011;5269;51.146;16.986;2022-10-17T04:29:12;27.77;;;21.60;;
10442;SDS011;5269;51.146;16.986;2022-10-17T04:31:39;22.75;;;18.13;;
10442;SDS011;5269;51.146;16.986;2022-10-17T04:34:06;29.35;;;21.38;;
10442;SDS011;5269;51.146;16.986;2022-10-17T04:36:33;25.02;;;17.50;;
10442;SDS011;5269;51.146;16.986;2022-10-17T04:39:00;27.88;;;20.27;;
10442;SDS011;5269;51.146;16.986;2022-10-17T04:41:27;25.55;;;20.08;;
10442;SDS011;5269;51.146;16.986;2022-10-17T04:43:54;26.75;;;19.48;;
10442;SDS011;5269;51.146;16.986;2022-10-17T04:46:22;22.60;;;18.33;;
10442;SDS011;5269;51.146;16.986;2022-10-17T04:48:49;23.80;;;18.25;;
10442;SDS011;5269;51.146;16.986;2022-10-17T04:51:17;25.77;;;18.77;;
10442;SDS011;5269;51.146;16.986;2022-10-17T04:53:44;25.83;;;18.83;;
10442;SDS011;5269;51.146;16.986;2022-10-17T04:56:12;25.10;;;20.20;;
10442;SDS011;5269;51.146;16.986;2022-10-17T04:58:40;26.15;;;19.52;;
10442;SDS011;5269;51.146;16.986;2022-10-17T05:01:09;25.88;;;20.17;;
10442;SDS011;5269;51.146;16.986;2022-10-17T05:03:40;27.98;;;20.63;;
10442;SDS011;5269;51.146;16.986;2022-10-17T05:06:09;26.05;;;18.98;;
10442;SDS011;5269;51.146;16.986;2022-10-17T05:08:36;26.92;;;18.27;;
10442;SDS011;5269;51.146;16.986;2022-10-17T05:11:04;20.80;;;17.17;;
10442;SDS011;5269;51.146;16.986;2022-10-17T05:13:40;22.23;;;17.10;;
10442;SDS011;5269;51.146;16.986;2022-10-17T05:16:06;23.65;;;17.70;;
10442;SDS011;5269;51.146;16.986;2022-10-17T05:18:33;23.13;;;18.35;;
10442;SDS011;5269;51.146;16.986;2022-10-17T05:21:03;21.17;;;16.73;;
10442;SDS011;5269;51.146;16.986;2022-10-17T05:23:30;22.27;;;16.98;;
10442;SDS011;5269;51.146;16.986;2022-10-17T05:25:57;20.35;;;16.40;;
10442;SDS011;5269;51.146;16.986;2022-10-17T05:28:24;24.00;;;18.13;;
10442;SDS011;5269;51.146;16.986;2022-10-17T05:30:50;22.73;;;17.58;;
10442;SDS011;5269;51.146;16.986;2022-10-17T05:33:17;21.58;;;16.27;;
10442;SDS011;5269;51.146;16.986;2022-10-17T05:35:44;22.88;;;17.88;;
10442;SDS011;5269;51.146;16.986;2022-10-17T05:38:12;25.80;;;19.60;;
10442;SDS011;5269;51.146;16.986;2022-10-17T05:40:39;24.65;;;20.20;;
10442;SDS011;5269;51.146;16.986;2022-10-17T05:43:06;21.25;;;18.17;;
10442;SDS011;5269;51.146;16.986;2022-10-17T05:45:34;21.55;;;18.13;;
10442;SDS011;5269;51.146;16.986;2022-10-17T05:48:01;24.77;;;18.85;;
10442;SDS011;5269;51.146;16.986;2022-10-17T05:50:28;21.50;;;17.55;;
10442;SDS011;5269;51.146;16.986;2022-10-17T05:52:55;26.75;;;19.60;;
10442;SDS011;5269;51.146;16.986;2022-10-17T05:55:23;27.25;;;20.30;;
10442;SDS011;5269;51.146;16.986;2022-10-17T05:57:50;27.90;;;20.55;;
10442;SDS011;5269;51.146;16.986;2022-10-17T06:00:18;28.98;;;21.75;;
10442;SDS011;5269;51.146;16.986;2022-10-17T06:02:46;27.25;;;21.50;;
10442;SDS011;5269;51.146;16.986;2022-10-17T06:05:13;32.10;;;23.10;;
10442;SDS011;5269;51.146;16.986;2022-10-17T06:07:40;35.17;;;22.27;;
10442;SDS011;5269;51.146;16.986;2022-10-17T06:10:08;33.00;;;23.13;;
10442;SDS011;5269;51.146;16.986;2022-10-17T06:12:40;28.08;;;22.88;;
10442;SDS011;5269;51.146;16.986;2022-10-17T06:15:07;30.48;;;23.45;;
10442;SDS011;5269;51.146;16.986;2022-10-17T06:17:35;32.20;;;24.58;;
10442;SDS011;5269;51.146;16.986;2022-10-17T06:20:02;36.17;;;25.60;;
10442;SDS011;5269;51.146;16.986;2022-10-17T06:22:29;34.55;;;25.33;;
10442;SDS011;5269;51.146;16.986;2022-10-17T06:24:56;35.45;;;25.30;;
10442;SDS011;5269;51.146;16.986;2022-10-17T06:27:23;32.05;;;24.67;;
10442;SDS011;5269;51.146;16.986;2022-10-17T06:29:51;36.60;;;25.00;;
10442;SDS011;5269;51.146;16.986;2022-10-17T06:32:18;35.05;;;25.48;;
10442;SDS011;5269;51.146;16.986;2022-10-17T06:34:45;34.15;;;26.25;;
10442;SDS011;5269;51.146;16.986;2022-10-17T06:37:12;35.05;;;25.95;;
10442;SDS011;5269;51.146;16.986;2022-10-17T06:39:39;36.60;;;26.00;;
10442;SDS011;5269;51.146;16.986;2022-10-17T06:42:06;34.60;;;25.98;;
10442;SDS011;5269;51.146;16.986;2022-10-17T06:44:33;35.08;;;25.92;;
10442;SDS011;5269;51.146;16.986;2022-10-17T06:47:01;36.33;;;26.17;;
10442;SDS011;5269;51.146;16.986;2022-10-17T06:49:28;36.33;;;25.95;;
10442;SDS011;5269;51.146;16.986;2022-10-17T06:51:57;38.13;;;25.95;;
10442;SDS011;5269;51.146;16.986;2022-10-17T06:54:23;39.13;;;25.63;;
10442;SDS011;5269;51.146;16.986;2022-10-17T06:56:52;36.95;;;26.65;;
10442;SDS011;5269;51.146;16.986;2022-10-17T06:59:20;39.70;;;27.15;;
10442;SDS011;5269;51.146;16.986;2022-10-17T07:01:47;39.40;;;26.27;;
10442;SDS011;5269;51.146;16.986;2022-10-17T07:04:15;34.60;;;26.33;;
10442;SDS011;5269;51.146;16.986;2022-10-17T07:06:42;32.90;;;25.85;;
10442;SDS011;5269;51.146;16.986;2022-10-17T07:09:09;37.83;;;25.70;;
10442;SDS011;5269;51.146;16.986;2022-10-17T07:11:35;33.03;;;25.33;;
10442;SDS011;5269;51.146;16.986;2022-10-17T07:14:04;36.53;;;24.95;;
10442;SDS011;5269;51.146;16.986;2022-10-17T07:16:31;33.75;;;24.75;;
10442;SDS011;5269;51.146;16.986;2022-10-17T07:18:58;29.60;;;23.90;;
10442;SDS011;5269;51.146;16.986;2022-10-17T07:21:26;32.00;;;23.05;;
10442;SDS011;5269;51.146;16.986;2022-10-17T07:23:53;28.88;;;22.98;;
10442;SDS011;5269;51.146;16.986;2022-10-17T07:26:20;31.88;;;22.92;;
10442;SDS011;5269;51.146;16.986;2022-10-17T07:28:50;28.45;;;22.13;;
10442;SDS011;5269;51.146;16.986;2022-10-17T07:31:18;31.17;;;23.25;;
10442;SDS011;5269;51.146;16.986;2022-10-17T07:33:46;31.65;;;22.02;;
10442;SDS011;5269;51.146;16.986;2022-10-17T07:36:14;33.53;;;22.00;;
10442;SDS011;5269;51.146;16.986;2022-10-17T07:38:43;26.65;;;22.15;;
10442;SDS011;5269;51.146;16.986;2022-10-17T07:41:09;29.77;;;21.65;;
10442;SDS011;5269;51.146;16.986;2022-10-17T07:43:37;29.02;;;22.05;;
10442;SDS011;5269;51.146;16.986;2022-10-17T07:46:05;32.22;;;20.30;;
10442;SDS011;5269;51.146;16.986;2022-10-17T07:48:32;27.15;;;20.50;;
10442;SDS011;5269;51.146;16.986;2022-10-17T07:51:00;30.83;;;20.92;;
10442;SDS011;5269;51.146;16.986;2022-10-17T07:53:28;27.75;;;21.98;;
10442;SDS011;5269;51.146;16.986;2022-10-17T07:55:56;24.55;;;20.10;;
10442;SDS011;5269;51.146;16.986;2022-10-17T07:58:23;26.75;;;19.98;;
10442;SDS011;5269;51.146;16.986;2022-10-17T08:00:52;27.13;;;18.67;;
10442;SDS011;5269;51.146;16.986;2022-10-17T08:03:19;26.60;;;19.00;;
10442;SDS011;5269;51.146;16.986;2022-10-17T08:05:46;27.52;;;18.50;;
10442;SDS011;5269;51.146;16.986;2022-10-17T08:08:13;30.05;;;18.63;;
10442;SDS011;5269;51.146;16.986;2022-10-17T08:10:40;22.75;;;17.92;;
10442;SDS011;5269;51.146;16.986;2022-10-17T08:13:08;20.25;;;18.08;;
10442;SDS011;5269;51.146;16.986;2022-10-17T08:15:36;24.05;;;17.85;;
10442;SDS011;5269;51.146;16.986;2022-10-17T08:18:04;21.17;;;18.45;;
10442;SDS011;5269;51.146;16.986;2022-10-17T08:20:30;27.75;;;18.38;;
10442;SDS011;5269;51.146;16.986;2022-10-17T08:22:57;22.05;;;17.52;;
10442;SDS011;5269;51.146;16.986;2022-10-17T08:25:24;23.65;;;18.65;;
10442;SDS011;5269;51.146;16.986;2022-10-17T08:27:51;24.70;;;17.80;;
10442;SDS011;5269;51.146;16.986;2022-10-17T08:30:19;23.27;;;17.75;;
10442;SDS011;5269;51.146;16.986;2022-10-17T08:32:46;23.73;;;17.55;;
10442;SDS011;5269;51.146;16.986;2022-10-17T08:35:13;23.67;;;17.80;;
10442;SDS011;5269;51.146;16.986;2022-10-17T08:37:40;20.20;;;17.83;;
10442;SDS011;5269;51.146;16.986;2022-10-17T08:40:09;20.95;;;17.38;;
10442;SDS011;5269;51.146;16.986;2022-10-17T08:42:46;21.00;;;16.30;;
10442;SDS011;5269;51.146;16.986;2022-10-17T08:45:25;21.90;;;16.75;;
10442;SDS011;5269;51.146;16.986;2022-10-17T08:47:57;18.83;;;16.65;;
10442;SDS011;5269;51.146;16.986;2022-10-17T08:50:27;19.60;;;16.25;;
10442;SDS011;5269;51.146;16.986;2022-10-17T08:52:59;22.77;;;15.25;;
10442;SDS011;5269;51.146;16.986;2022-10-17T08:55:32;20.75;;;15.88;;
10442;SDS011;5269;51.146;16.986;2022-10-17T08:58:01;17.27;;;14.90;;
10442;SDS011;5269;51.146;16.986;2022-10-17T09:00:30;18.25;;;15.82;;
10442;SDS011;5269;51.146;16.986;2022-10-17T09:03:02;19.92;;;16.02;;
10442;SDS011;5269;51.146;16.986;2022-10-17T09:05:40;17.80;;;15.75;;
10442;SDS011;5269;51.146;16.986;2022-10-17T09:08:17;17.73;;;15.20;;
10442;SDS011;5269;51.146;16.986;2022-10-17T09:10:57;17.67;;;14.95;;
10442;SDS011;5269;51.146;16.986;2022-10-17T09:13:38;19.27;;;15.55;;
10442;SDS011;5269;51.146;16.986;2022-10-17T09:16:35;17.95;;;14.57;;
10442;SDS011;5269;51.146;16.986;2022-10-17T09:19:19;19.80;;;15.63;;
10442;SDS011;5269;51.146;16.986;2022-10-17T09:21:51;19.30;;;14.90;;
10442;SDS011;5269;51.146;16.986;2022-10-17T09:24:23;18.67;;;15.20;;
10442;SDS011;5269;51.146;16.986;2022-10-17T09:26:58;21.20;;;16.02;;
10442;SDS011;5269;51.146;16.986;2022-10-17T09:29:25;17.40;;;14.60;;
10442;SDS011;5269;51.146;16.986;2022-10-17T09:31:56;21.23;;;15.45;;
10442;SDS011;5269;51.146;16.986;2022-10-17T09:34:27;20.10;;;15.60;;
10442;SDS011;5269;51.146;16.986;2022-10-17T09:36:56;22.17;;;14.98;;
10442;SDS011;5269;51.146;16.986;2022-10-17T09:39:24;18.55;;;15.15;;
10442;SDS011;5269;51.146;16.986;2022-10-17T09:41:56;18.65;;;14.60;;
10442;SDS011;5269;51.146;16.986;2022-10-17T09:44:28;17.70;;;15.77;;
10442;SDS011;5269;51.146;16.986;2022-10-17T09:49:45;17.35;;;14.82;;
10442;SDS011;5269;51.146;16.986;2022-10-17T09:52:14;17.75;;;14.73;;
10442;SDS011;5269;51.146;16.986;2022-10-17T09:54:44;17.50;;;15.68;;
10442;SDS011;5269;51.146;16.986;2022-10-17T09:57:13;19.38;;;15.15;;
10442;SDS011;5269;51.146;16.986;2022-10-17T09:59:43;17.42;;;15.05;;
10442;SDS011;5269;51.146;16.986;2022-10-17T10:02:18;20.98;;;14.50;;
10442;SDS011;5269;51.146;16.986;2022-10-17T10:04:53;16.33;;;14.55;;
10442;SDS011;5269;51.146;16.986;2022-10-17T10:07:23;17.58;;;14.85;;
10442;SDS011;5269;51.146;16.986;2022-10-17T10:09:50;20.73;;;14.63;;
10442;SDS011;5269;51.146;16.986;2022-10-17T10:12:19;16.25;;;14.23;;
10442;SDS011;5269;51.146;16.986;2022-10-17T10:14:48;19.15;;;14.98;;
10442;SDS011;5269;51.146;16.986;2022-10-17T10:17:27;19.27;;;13.82;;
10442;SDS011;5269;51.146;16.986;2022-10-17T10:20:00;15.25;;;13.73;;
10442;SDS011;5269;51.146;16.986;2022-10-17T10:22:29;19.05;;;13.77;;
10442;SDS011;5269;51.146;16.986;2022-10-17T10:25:12;18.92;;;14.65;;
10442;SDS011;5269;51.146;16.986;2022-10-17T10:27:41;17.25;;;14.63;;
10442;SDS011;5269;51.146;16.986;2022-10-17T10:30:15;19.33;;;14.30;;
10442;SDS011;5269;51.146;16.986;2022-10-17T10:32:46;16.88;;;13.55;;
10442;SDS011;5269;51.146;16.986;2022-10-17T10:35:17;15.98;;;13.15;;
10442;SDS011;5269;51.146;16.986;2022-10-17T10:37:47;15.25;;;12.10;;
10442;SDS011;5269;51.146;16.986;2022-10-17T10:40:16;15.80;;;12.77;;
10442;SDS011;5269;51.146;16.986;2022-10-17T10:42:46;17.90;;;13.63;;
10442;SDS011;5269;51.146;16.986;2022-10-17T10:45:16;15.27;;;12.63;;
10442;SDS011;5269;51.146;16.986;2022-10-17T10:47:50;13.68;;;12.25;;
10442;SDS011;5269;51.146;16.986;2022-10-17T10:50:24;15.60;;;13.40;;
10442;SDS011;5269;51.146;16.986;2022-10-17T10:53:04;14.88;;;12.90;;
10442;SDS011;5269;51.146;16.986;2022-10-17T10:55:44;13.98;;;12.57;;
10442;SDS011;5269;51.146;16.986;2022-10-17T10:58:19;13.65;;;11.88;;
10442;SDS011;5269;51.146;16.986;2022-10-17T11:00:52;15.45;;;12.73;;
10442;SDS011;5269;51.146;16.986;2022-10-17T11:03:25;14.93;;;12.00;;
10442;SDS011;5269;51.146;16.986;2022-10-17T11:06:00;16.58;;;12.30;;
10442;SDS011;5269;51.146;16.986;2022-10-17T11:08:33;15.25;;;12.32;;
10442;SDS011;5269;51.146;16.986;2022-10-17T11:11:06;16.23;;;11.57;;
10442;SDS011;5269;51.146;16.986;2022-10-17T11:13:43;15.85;;;11.43;;
10442;SDS011;5269;51.146;16.986;2022-10-17T11:16:16;14.80;;;12.43;;
10442;SDS011;5269;51.146;16.986;2022-10-17T11:18:51;15.23;;;12.27;;
10442;SDS011;5269;51.146;16.986;2022-10-17T11:21:25;13.63;;;11.68;;
10442;SDS011;5269;51.146;16.986;2022-10-17T11:24:06;13.40;;;12.02;;
10442;SDS011;5269;51.146;16.986;2022-10-17T11:26:39;13.65;;;11.30;;
10442;SDS011;5269;51.146;16.986;2022-10-17T11:29:10;13.48;;;11.60;;
10442;SDS011;5269;51.146;16.986;2022-10-17T11:31:39;14.80;;;11.82;;
10442;SDS011;5269;51.146;16.986;2022-10-17T11:34:13;15.50;;;12.65;;
10442;SDS011;5269;51.146;16.986;2022-10-17T11:36:44;15.40;;;12.10;;
10442;SDS011;5269;51.146;16.986;2022-10-17T11:39:15;14.55;;;11.65;;
10442;SDS011;5269;51.146;16.986;2022-10-17T11:41:45;16.30;;;11.80;;
10442;SDS011;5269;51.146;16.986;2022-10-17T11:44:17;14.18;;;11.13;;
10442;SDS011;5269;51.146;16.986;2022-10-17T11:46:53;13.13;;;11.70;;
10442;SDS011;5269;51.146;16.986;2022-10-17T11:49:23;12.93;;;10.45;;
10442;SDS011;5269;51.146;16.986;2022-10-17T11:51:56;15.00;;;11.00;;
10442;SDS011;5269;51.146;16.986;2022-10-17T11:54:33;15.07;;;10.90;;
10442;SDS011;5269;51.146;16.986;2022-10-17T11:57:14;16.60;;;10.07;;
10442;SDS011;5269;51.146;16.986;2022-10-17T11:59:55;11.82;;;10.27;;
10442;SDS011;5269;51.146;16.986;2022-10-17T12:02:30;12.77;;;10.57;;
10442;SDS011;5269;51.146;16.986;2022-10-17T12:05:08;12.05;;;10.75;;
10442;SDS011;5269;51.146;16.986;2022-10-17T12:07:47;12.23;;;10.70;;
10442;SDS011;5269;51.146;16.986;2022-10-17T12:10:21;12.38;;;10.73;;
10442;SDS011;5269;51.146;16.986;2022-10-17T12:19:22;12.38;;;10.50;;
10442;SDS011;5269;51.146;16.986;2022-10-17T12:21:54;11.10;;;10.05;;
10442;SDS011;5269;51.146;16.986;2022-10-17T12:24:26;11.98;;;10.63;;
10442;SDS011;5269;51.146;16.986;2022-10-17T12:30:17;11.38;;;9.93;;
10442;SDS011;5269;51.146;16.986;2022-10-17T12:32:53;12.32;;;9.85;;
10442;SDS011;5269;51.146;16.986;2022-10-17T12:35:26;11.20;;;9.02;;
10442;SDS011;5269;51.146;16.986;2022-10-17T12:40:58;10.68;;;9.13;;
10442;SDS011;5269;51.146;16.986;2022-10-17T12:43:36;11.23;;;9.63;;
10442;SDS011;5269;51.146;16.986;2022-10-17T12:46:10;10.23;;;8.57;;
10442;SDS011;5269;51.146;16.986;2022-10-17T12:54:44;10.07;;;8.75;;
10442;SDS011;5269;51.146;16.986;2022-10-17T13:00:03;11.38;;;8.90;;
10442;SDS011;5269;51.146;16.986;2022-10-17T13:02:39;12.55;;;8.45;;
10442;SDS011;5269;51.146;16.986;2022-10-17T13:05:07;10.00;;;9.00;;
10442;SDS011;5269;51.146;16.986;2022-10-17T13:07:40;12.00;;;8.50;;
10442;SDS011;5269;51.146;16.986;2022-10-17T13:10:16;9.35;;;8.20;;
10442;SDS011;5269;51.146;16.986;2022-10-17T13:12:46;14.27;;;8.18;;
10442;SDS011;5269;51.146;16.986;2022-10-17T13:15:15;9.65;;;7.82;;
10442;SDS011;5269;51.146;16.986;2022-10-17T13:17:44;8.90;;;7.78;;
10442;SDS011;5269;51.146;16.986;2022-10-17T13:20:17;11.27;;;7.95;;
10442;SDS011;5269;51.146;16.986;2022-10-17T13:22:47;11.07;;;8.68;;
10442;SDS011;5269;51.146;16.986;2022-10-17T13:25:17;10.23;;;8.45;;
10442;SDS011;5269;51.146;16.986;2022-10-17T13:27:47;9.75;;;8.75;;
10442;SDS011;5269;51.146;16.986;2022-10-17T13:30:22;10.45;;;9.00;;
10442;SDS011;5269;51.146;16.986;2022-10-17T13:32:51;11.50;;;8.90;;
10442;SDS011;5269;51.146;16.986;2022-10-17T13:35:21;11.00;;;9.00;;
10442;SDS011;5269;51.146;16.986;2022-10-17T13:37:50;12.52;;;9.55;;
10442;SDS011;5269;51.146;16.986;2022-10-17T13:40:20;9.90;;;8.90;;
10442;SDS011;5269;51.146;16.986;2022-10-17T13:42:53;10.82;;;8.70;;
10442;SDS011;5269;51.146;16.986;2022-10-17T13:45:23;14.15;;;8.32;;
10442;SDS011;5269;51.146;16.986;2022-10-17T13:47:55;16.10;;;9.52;;
10442;SDS011;5269;51.146;16.986;2022-10-17T13:50:24;10.43;;;8.55;;
10442;SDS011;5269;51.146;16.986;2022-10-17T13:53:06;9.43;;;8.32;;
10442;SDS011;5269;51.146;16.986;2022-10-17T13:55:52;10.85;;;8.65;;
10442;SDS011;5269;51.146;16.986;2022-10-17T13:58:23;11.65;;;10.45;;
10442;SDS011;5269;51.146;16.986;2022-10-17T14:00:50;10.23;;;7.78;;
10442;SDS011;5269;51.146;16.986;2022-10-17T14:03:18;10.18;;;8.45;;
10442;SDS011;5269;51.146;16.986;2022-10-17T14:08:49;9.60;;;8.57;;
10442;SDS011;5269;51.146;16.986;2022-10-17T14:11:28;13.90;;;8.23;;
10442;SDS011;5269;51.146;16.986;2022-10-17T14:14:00;10.77;;;8.65;;
10442;SDS011;5269;51.146;16.986;2022-10-17T14:16:33;9.95;;;8.10;;
10442;SDS011;5269;51.146;16.986;2022-10-17T14:19:04;8.50;;;7.63;;
10442;SDS011;5269;51.146;16.986;2022-10-17T14:21:38;10.68;;;8.00;;
10442;SDS011;5269;51.146;16.986;2022-10-17T14:24:12;10.15;;;7.60;;
10442;SDS011;5269;51.146;16.986;2022-10-17T14:26:52;12.10;;;7.60;;
10442;SDS011;5269;51.146;16.986;2022-10-17T14:29:24;8.40;;;7.30;;
10442;SDS011;5269;51.146;16.986;2022-10-17T14:31:56;8.63;;;7.82;;
10442;SDS011;5269;51.146;16.986;2022-10-17T14:34:30;9.98;;;8.13;;
10442;SDS011;5269;51.146;16.986;2022-10-17T14:36:59;9.32;;;7.80;;
10442;SDS011;5269;51.146;16.986;2022-10-17T14:39:26;10.30;;;7.43;;
10442;SDS011;5269;51.146;16.986;2022-10-17T14:41:54;13.38;;;7.57;;
10442;SDS011;5269;51.146;16.986;2022-10-17T14:44:26;12.60;;;7.10;;
10442;SDS011;5269;51.146;16.986;2022-10-17T14:46:56;8.57;;;7.00;;
10442;SDS011;5269;51.146;16.986;2022-10-17T14:49:31;7.72;;;7.00;;
10442;SDS011;5269;51.146;16.986;2022-10-17T14:54:55;9.05;;;7.78;;
10442;SDS011;5269;51.146;16.986;2022-10-17T14:57:25;10.57;;;7.47;;
10442;SDS011;5269;51.146;16.986;2022-10-17T14:59:56;10.20;;;7.30;;
10442;SDS011;5269;51.146;16.986;2022-10-17T15:02:23;9.38;;;7.90;;
10442;SDS011;5269;51.146;16.986;2022-10-17T15:04:51;10.15;;;7.20;;
10442;SDS011;5269;51.146;16.986;2022-10-17T15:07:20;7.60;;;6.88;;
10442;SDS011;5269;51.146;16.986;2022-10-17T15:09:48;14.00;;;7.28;;
10442;SDS011;5269;51.146;16.986;2022-10-17T15:12:17;7.65;;;6.75;;
10442;SDS011;5269;51.146;16.986;2022-10-17T15:14:45;8.90;;;6.90;;
10442;SDS011;5269;51.146;16.986;2022-10-17T15:17:15;8.23;;;7.18;;